QFA2711 YSSY-YBBN
Flight info
| Callsign | QFA2711 |
|---|---|
| Flight time | 1h 14m |
| Altitude | 37000 |
| Route | KEVIN7/16L OLSEM Y193 BANDA H252 GOMOL GOMOL4A |
| Aircraft | A320/M-SDE3FGHIRWY/LB1 |
Departure
| Time | 2026-04-24 06:50 |
|---|---|
| Airport | Sydney Kingsford Smith International Airport (YSSY) |
Arrival
| Time | 2026-04-24 08:05 |
|---|---|
| Airport | Brisbane International Airport (YBBN) |
| Time | Latitude | Longitude | Altitude | Speed | Heading |
|---|---|---|---|---|---|
| 2026-04-24 06:01 | -33.93128 | 151.17756 | 30 ft | 0 kts | 191° |
| 2026-04-24 06:24 | -33.93113 | 151.17759 | 30 ft | 4 kts | 191° |
| 2026-04-24 06:25 | -33.93086 | 151.17766 | 30 ft | 4 kts | 191° |
| 2026-04-24 06:25 | -33.93063 | 151.17774 | 30 ft | 4 kts | 231° |
| 2026-04-24 06:25 | -33.93060 | 151.17800 | 30 ft | 3 kts | 285° |
| 2026-04-24 06:25 | -33.93064 | 151.17819 | 30 ft | 0 kts | 280° |
| 2026-04-24 06:30 | -33.93063 | 151.17814 | 30 ft | 1 kts | 284° |
| 2026-04-24 06:30 | -33.93051 | 151.17764 | 30 ft | 13 kts | 289° |
| 2026-04-24 06:30 | -33.93043 | 151.17736 | 30 ft | 0 kts | 290° |
| 2026-04-24 06:31 | -33.93042 | 151.17735 | 30 ft | 0 kts | 298° |
| 2026-04-24 06:33 | -33.93041 | 151.17734 | 30 ft | 2 kts | 299° |
| 2026-04-24 06:33 | -33.93040 | 151.17732 | 30 ft | 0 kts | 302° |
| 2026-04-24 06:33 | -33.93027 | 151.17712 | 30 ft | 11 kts | 307° |
| 2026-04-24 06:34 | -33.93020 | 151.17695 | 30 ft | 0 kts | 298° |
| 2026-04-24 06:35 | -33.93019 | 151.17691 | 30 ft | 0 kts | 289° |
| 2026-04-24 06:37 | -33.93017 | 151.17683 | 30 ft | 0 kts | 285° |
| 2026-04-24 06:38 | -33.93016 | 151.17677 | 30 ft | 3 kts | 282° |
| 2026-04-24 06:38 | -33.93010 | 151.17636 | 30 ft | 6 kts | 279° |
| 2026-04-24 06:38 | -33.93010 | 151.17575 | 30 ft | 8 kts | 253° |
| 2026-04-24 06:38 | -33.93060 | 151.17528 | 30 ft | 11 kts | 203° |
| 2026-04-24 06:39 | -33.93143 | 151.17532 | 30 ft | 13 kts | 167° |
| 2026-04-24 06:39 | -33.93243 | 151.17561 | 30 ft | 16 kts | 166° |
| 2026-04-24 06:39 | -33.93356 | 151.17586 | 30 ft | 17 kts | 167° |
| 2026-04-24 06:39 | -33.93477 | 151.17579 | 30 ft | 18 kts | 178° |
| 2026-04-24 06:40 | -33.93589 | 151.17615 | 30 ft | 17 kts | 167° |
| 2026-04-24 06:40 | -33.93706 | 151.17675 | 30 ft | 19 kts | 154° |
| 2026-04-24 06:40 | -33.93827 | 151.17712 | 30 ft | 11 kts | 158° |
| 2026-04-24 06:40 | -33.93883 | 151.17774 | 30 ft | 12 kts | 155° |
| 2026-04-24 06:41 | -33.93977 | 151.17799 | 29 ft | 16 kts | 167° |
| 2026-04-24 06:41 | -33.94101 | 151.17833 | 29 ft | 20 kts | 167° |
| 2026-04-24 06:41 | -33.94244 | 151.17869 | 30 ft | 22 kts | 168° |
| 2026-04-24 06:41 | -33.94398 | 151.17910 | 30 ft | 23 kts | 169° |
| 2026-04-24 06:42 | -33.94531 | 151.17887 | 30 ft | 19 kts | 175° |
| 2026-04-24 06:42 | -33.94670 | 151.17922 | 30 ft | 21 kts | 167° |
| 2026-04-24 06:42 | -33.94815 | 151.17963 | 30 ft | 22 kts | 174° |
| 2026-04-24 06:42 | -33.94972 | 151.17998 | 30 ft | 24 kts | 168° |
| 2026-04-24 06:43 | -33.95093 | 151.18047 | 30 ft | 13 kts | 131° |
| 2026-04-24 06:43 | -33.95088 | 151.18164 | 30 ft | 16 kts | 76° |
| 2026-04-24 06:43 | -33.95060 | 151.18303 | 30 ft | 18 kts | 79° |
| 2026-04-24 06:43 | -33.95034 | 151.18461 | 30 ft | 19 kts | 75° |
| 2026-04-24 06:44 | -33.95014 | 151.18583 | 30 ft | 13 kts | 77° |
| 2026-04-24 06:44 | -33.95003 | 151.18640 | 30 ft | 0 kts | 77° |
| 2026-04-24 06:45 | -33.94996 | 151.18679 | 29 ft | 7 kts | 77° |
| 2026-04-24 06:45 | -33.94991 | 151.18706 | 29 ft | 0 kts | 78° |
| 2026-04-24 06:46 | -33.94986 | 151.18732 | 28 ft | 6 kts | 78° |
| 2026-04-24 06:47 | -33.94993 | 151.18807 | 26 ft | 12 kts | 116° |
| 2026-04-24 06:47 | -33.95052 | 151.18851 | 24 ft | 0 kts | 168° |
| 2026-04-24 06:49 | -33.95091 | 151.18861 | 24 ft | 23 kts | 168° |
| 2026-04-24 06:50 | -33.95485 | 151.18963 | 27 ft | 89 kts | 167° |
| 2026-04-24 06:50 | -33.96248 | 151.19161 | 28 ft | 133 kts | 167° |
| 2026-04-24 06:50 | -33.97175 | 151.19391 | 398 ft | 129 kts | 169° |
| 2026-04-24 06:50 | -33.98064 | 151.19690 | 956 ft | 147 kts | 155° |
| 2026-04-24 06:51 | -33.99074 | 151.20418 | 1189 ft | 183 kts | 139° |
| 2026-04-24 06:51 | -33.99900 | 151.21400 | 1909 ft | 153 kts | 130° |
| 2026-04-24 06:51 | -34.00506 | 151.22395 | 2402 ft | 150 kts | 118° |
| 2026-04-24 06:51 | -34.00953 | 151.23499 | 2980 ft | 143 kts | 115° |
| 2026-04-24 06:52 | -34.01411 | 151.24483 | 3194 ft | 125 kts | 127° |
| 2026-04-24 06:52 | -34.02076 | 151.25251 | 3557 ft | 139 kts | 143° |
| 2026-04-24 06:52 | -34.02900 | 151.25745 | 4246 ft | 139 kts | 156° |
| 2026-04-24 06:52 | -34.03939 | 151.26304 | 4272 ft | 191 kts | 147° |
| 2026-04-24 06:53 | -34.05018 | 151.27426 | 4766 ft | 213 kts | 131° |
| 2026-04-24 06:53 | -34.06128 | 151.28863 | 4983 ft | 259 kts | 131° |
| 2026-04-24 06:53 | -34.07486 | 151.30588 | 5014 ft | 306 kts | 133° |
| 2026-04-24 06:53 | -34.09028 | 151.32406 | 5003 ft | 302 kts | 135° |
| 2026-04-24 06:54 | -34.10509 | 151.34093 | 5085 ft | 279 kts | 128° |
| 2026-04-24 06:54 | -34.11421 | 151.35941 | 5697 ft | 244 kts | 108° |
| 2026-04-24 06:54 | -34.11703 | 151.37894 | 6319 ft | 230 kts | 87° |
| 2026-04-24 06:54 | -34.11389 | 151.39723 | 6958 ft | 223 kts | 66° |
| 2026-04-24 06:55 | -34.10503 | 151.41377 | 7569 ft | 249 kts | 49° |
| 2026-04-24 06:55 | -34.09327 | 151.42950 | 8180 ft | 256 kts | 49° |
| 2026-04-24 06:55 | -34.08116 | 151.44556 | 8806 ft | 262 kts | 49° |
| 2026-04-24 06:55 | -34.06801 | 151.46098 | 9451 ft | 267 kts | 39° |
| 2026-04-24 06:56 | -34.05181 | 151.47239 | 10107 ft | 273 kts | 24° |
| 2026-04-24 06:56 | -34.03340 | 151.47919 | 10724 ft | 279 kts | 17° |
| 2026-04-24 06:56 | -34.01462 | 151.48523 | 11325 ft | 281 kts | 17° |
| 2026-04-24 06:56 | -33.99560 | 151.49143 | 11934 ft | 286 kts | 17° |
| 2026-04-24 06:57 | -33.97610 | 151.49782 | 12574 ft | 294 kts | 17° |
| 2026-04-24 06:57 | -33.95621 | 151.50440 | 13220 ft | 300 kts | 17° |
| 2026-04-24 06:57 | -33.93584 | 151.51113 | 13868 ft | 306 kts | 17° |
| 2026-04-24 06:57 | -33.91513 | 151.51797 | 14500 ft | 311 kts | 17° |
| 2026-04-24 06:58 | -33.89406 | 151.52490 | 15094 ft | 316 kts | 17° |
| 2026-04-24 06:58 | -33.87268 | 151.53192 | 15709 ft | 320 kts | 17° |
| 2026-04-24 06:58 | -33.85106 | 151.53900 | 16328 ft | 324 kts | 18° |
| 2026-04-24 06:58 | -33.82921 | 151.54615 | 16963 ft | 327 kts | 17° |
| 2026-04-24 06:59 | -33.80716 | 151.55331 | 17603 ft | 330 kts | 18° |
| 2026-04-24 06:59 | -33.78495 | 151.56052 | 18261 ft | 332 kts | 18° |
| 2026-04-24 06:59 | -33.76262 | 151.56776 | 18908 ft | 333 kts | 18° |
| 2026-04-24 06:59 | -33.74018 | 151.57506 | 19500 ft | 335 kts | 18° |
| 2026-04-24 07:00 | -33.71761 | 151.58239 | 20095 ft | 336 kts | 18° |
| 2026-04-24 07:00 | -33.69505 | 151.58973 | 20704 ft | 337 kts | 18° |
| 2026-04-24 07:00 | -33.67242 | 151.59709 | 21324 ft | 336 kts | 19° |
| 2026-04-24 07:00 | -33.65078 | 151.60617 | 21956 ft | 332 kts | 27° |
| 2026-04-24 07:01 | -33.63041 | 151.61882 | 22621 ft | 327 kts | 35° |
| 2026-04-24 07:01 | -33.61144 | 151.63365 | 23267 ft | 323 kts | 37° |
| 2026-04-24 07:01 | -33.59278 | 151.64834 | 23950 ft | 319 kts | 37° |
| 2026-04-24 07:01 | -33.57434 | 151.66280 | 24536 ft | 314 kts | 37° |
| 2026-04-24 07:02 | -33.55605 | 151.67715 | 24966 ft | 317 kts | 37° |
| 2026-04-24 07:02 | -33.53739 | 151.69182 | 25225 ft | 324 kts | 37° |
| 2026-04-24 07:02 | -33.52484 | 151.70170 | 25405 ft | 328 kts | 37° |
| 2026-04-24 07:02 | -33.50517 | 151.71622 | 25676 ft | 337 kts | 31° |
| 2026-04-24 07:03 | -33.48355 | 151.72802 | 25945 ft | 346 kts | 24° |
| 2026-04-24 07:03 | -33.46025 | 151.73668 | 26224 ft | 355 kts | 18° |
| 2026-04-24 07:03 | -33.43617 | 151.74442 | 26498 ft | 361 kts | 18° |
| 2026-04-24 07:03 | -33.41173 | 151.75234 | 26780 ft | 367 kts | 18° |
| 2026-04-24 07:04 | -33.38683 | 151.76040 | 27060 ft | 374 kts | 18° |
| 2026-04-24 07:04 | -33.36198 | 151.76845 | 27340 ft | 380 kts | 18° |
| 2026-04-24 07:04 | -33.33622 | 151.77680 | 27630 ft | 386 kts | 18° |
| 2026-04-24 07:04 | -33.31010 | 151.78529 | 27916 ft | 393 kts | 18° |
| 2026-04-24 07:05 | -33.28347 | 151.79392 | 28210 ft | 399 kts | 18° |
| 2026-04-24 07:05 | -33.25653 | 151.80263 | 28418 ft | 405 kts | 18° |
| 2026-04-24 07:05 | -33.22901 | 151.81156 | 28462 ft | 415 kts | 18° |
| 2026-04-24 07:05 | -33.20069 | 151.82070 | 28463 ft | 428 kts | 18° |
| 2026-04-24 07:06 | -33.17156 | 151.83006 | 28465 ft | 439 kts | 18° |
| 2026-04-24 07:06 | -33.14166 | 151.83965 | 28462 ft | 450 kts | 18° |
| 2026-04-24 07:06 | -33.11111 | 151.84944 | 28462 ft | 459 kts | 18° |
| 2026-04-24 07:07 | -33.04908 | 151.86940 | 28463 ft | 463 kts | 18° |
| 2026-04-24 07:07 | -32.95571 | 151.89926 | 28466 ft | 463 kts | 18° |
| 2026-04-24 07:08 | -32.89351 | 151.91908 | 28464 ft | 463 kts | 18° |
| 2026-04-24 07:08 | -32.83185 | 151.93894 | 28467 ft | 461 kts | 18° |
| 2026-04-24 07:09 | -32.77004 | 151.95917 | 28466 ft | 460 kts | 18° |
| 2026-04-24 07:09 | -32.70782 | 151.97919 | 28462 ft | 460 kts | 18° |
| 2026-04-24 07:10 | -32.64647 | 151.99870 | 28467 ft | 459 kts | 18° |
| 2026-04-24 07:10 | -32.58472 | 152.01816 | 28466 ft | 459 kts | 18° |
| 2026-04-24 07:11 | -32.52299 | 152.03768 | 28461 ft | 460 kts | 18° |
| 2026-04-24 07:11 | -32.46192 | 152.05697 | 28456 ft | 458 kts | 18° |
| 2026-04-24 07:12 | -32.40103 | 152.07598 | 28467 ft | 461 kts | 18° |
| 2026-04-24 07:12 | -32.33906 | 152.09534 | 28461 ft | 461 kts | 18° |
| 2026-04-24 07:13 | -32.27711 | 152.11487 | 28463 ft | 461 kts | 18° |
| 2026-04-24 07:13 | -32.21516 | 152.13442 | 28468 ft | 460 kts | 18° |
| 2026-04-24 07:14 | -32.15330 | 152.15397 | 28460 ft | 460 kts | 18° |
| 2026-04-24 07:14 | -32.09136 | 152.17336 | 28465 ft | 460 kts | 18° |
| 2026-04-24 07:15 | -32.02944 | 152.19279 | 28462 ft | 460 kts | 19° |
| 2026-04-24 07:15 | -31.96755 | 152.21222 | 28461 ft | 460 kts | 19° |
| 2026-04-24 07:16 | -31.90564 | 152.23162 | 28459 ft | 460 kts | 19° |
| 2026-04-24 07:16 | -31.84369 | 152.25102 | 28463 ft | 460 kts | 19° |
| 2026-04-24 07:17 | -31.78172 | 152.27032 | 28463 ft | 460 kts | 19° |
| 2026-04-24 07:17 | -31.71986 | 152.28950 | 28462 ft | 460 kts | 19° |
| 2026-04-24 07:18 | -31.65799 | 152.30874 | 28462 ft | 459 kts | 19° |
| 2026-04-24 07:18 | -31.59623 | 152.32804 | 28462 ft | 459 kts | 19° |
| 2026-04-24 07:19 | -31.53441 | 152.34715 | 28459 ft | 459 kts | 19° |
| 2026-04-24 07:19 | -31.47260 | 152.36624 | 28460 ft | 459 kts | 19° |
| 2026-04-24 07:20 | -31.41126 | 152.38528 | 28462 ft | 459 kts | 19° |
| 2026-04-24 07:20 | -31.34951 | 152.40442 | 28462 ft | 459 kts | 19° |
| 2026-04-24 07:21 | -31.28765 | 152.42345 | 28459 ft | 459 kts | 19° |
| 2026-04-24 07:21 | -31.22580 | 152.44253 | 28459 ft | 460 kts | 19° |
| 2026-04-24 07:22 | -31.16393 | 152.46164 | 28455 ft | 460 kts | 18° |
| 2026-04-24 07:22 | -31.10204 | 152.48061 | 28454 ft | 460 kts | 18° |
| 2026-04-24 07:23 | -31.04011 | 152.49959 | 28452 ft | 459 kts | 17° |
| 2026-04-24 07:23 | -30.97867 | 152.51836 | 28450 ft | 459 kts | 17° |
| 2026-04-24 07:24 | -30.91696 | 152.53735 | 28450 ft | 458 kts | 17° |
| 2026-04-24 07:24 | -30.85521 | 152.55628 | 28445 ft | 458 kts | 16° |
| 2026-04-24 07:25 | -30.79350 | 152.57510 | 28448 ft | 458 kts | 17° |
| 2026-04-24 07:25 | -30.73246 | 152.59612 | 28449 ft | 457 kts | 19° |
| 2026-04-24 07:26 | -30.67188 | 152.61898 | 28447 ft | 457 kts | 19° |
| 2026-04-24 07:26 | -30.61131 | 152.64159 | 28451 ft | 457 kts | 19° |
| 2026-04-24 07:27 | -30.55053 | 152.66376 | 28447 ft | 458 kts | 18° |
| 2026-04-24 07:27 | -30.48968 | 152.68554 | 28446 ft | 458 kts | 18° |
| 2026-04-24 07:28 | -30.42874 | 152.70747 | 28446 ft | 458 kts | 19° |
| 2026-04-24 07:28 | -30.36788 | 152.72947 | 28440 ft | 458 kts | 18° |
| 2026-04-24 07:29 | -30.30734 | 152.75130 | 28435 ft | 459 kts | 18° |
| 2026-04-24 07:29 | -30.24600 | 152.77326 | 28432 ft | 459 kts | 18° |
| 2026-04-24 07:30 | -30.18543 | 152.79500 | 28427 ft | 458 kts | 19° |
| 2026-04-24 07:30 | -30.12455 | 152.81690 | 28429 ft | 458 kts | 19° |
| 2026-04-24 07:31 | -30.06367 | 152.83873 | 28423 ft | 458 kts | 19° |
| 2026-04-24 07:31 | -30.00276 | 152.86055 | 28421 ft | 458 kts | 19° |
| 2026-04-24 07:32 | -29.94188 | 152.88228 | 28417 ft | 458 kts | 19° |
| 2026-04-24 07:32 | -29.88104 | 152.90390 | 28415 ft | 457 kts | 19° |
| 2026-04-24 07:33 | -29.82027 | 152.92547 | 28409 ft | 457 kts | 19° |
| 2026-04-24 07:33 | -29.75946 | 152.94713 | 28408 ft | 457 kts | 19° |
| 2026-04-24 07:34 | -29.69884 | 152.96871 | 28400 ft | 456 kts | 19° |
| 2026-04-24 07:34 | -29.63824 | 152.99028 | 28404 ft | 455 kts | 19° |
| 2026-04-24 07:35 | -29.57768 | 153.01184 | 28405 ft | 455 kts | 19° |
| 2026-04-24 07:35 | -29.51755 | 153.03312 | 28401 ft | 455 kts | 19° |
| 2026-04-24 07:36 | -29.45701 | 153.05452 | 28399 ft | 455 kts | 19° |
| 2026-04-24 07:36 | -29.39723 | 153.07564 | 28397 ft | 455 kts | 19° |
| 2026-04-24 07:37 | -29.33673 | 153.09694 | 28398 ft | 454 kts | 19° |
| 2026-04-24 07:37 | -29.27629 | 153.11816 | 28392 ft | 454 kts | 19° |
| 2026-04-24 07:38 | -29.21584 | 153.13957 | 28388 ft | 454 kts | 19° |
| 2026-04-24 07:38 | -29.15543 | 153.16082 | 28389 ft | 454 kts | 19° |
| 2026-04-24 07:39 | -29.09500 | 153.18199 | 28382 ft | 454 kts | 19° |
| 2026-04-24 07:39 | -29.03451 | 153.20319 | 28384 ft | 455 kts | 19° |
| 2026-04-24 07:40 | -28.97404 | 153.22436 | 28383 ft | 455 kts | 19° |
| 2026-04-24 07:40 | -28.91353 | 153.24558 | 28377 ft | 455 kts | 19° |
| 2026-04-24 07:41 | -28.85290 | 153.26680 | 28380 ft | 456 kts | 19° |
| 2026-04-24 07:41 | -28.79212 | 153.28792 | 28379 ft | 456 kts | 19° |
| 2026-04-24 07:42 | -28.73136 | 153.30915 | 28372 ft | 457 kts | 19° |
| 2026-04-24 07:42 | -28.67060 | 153.33040 | 28371 ft | 457 kts | 19° |
| 2026-04-24 07:43 | -28.64023 | 153.34094 | 28136 ft | 458 kts | 19° |
| 2026-04-24 07:43 | -28.60986 | 153.35144 | 27603 ft | 454 kts | 19° |
| 2026-04-24 07:43 | -28.57971 | 153.36184 | 27086 ft | 451 kts | 19° |
| 2026-04-24 07:43 | -28.54972 | 153.37222 | 26581 ft | 448 kts | 19° |
| 2026-04-24 07:44 | -28.51996 | 153.38255 | 26084 ft | 446 kts | 19° |
| 2026-04-24 07:44 | -28.49039 | 153.39283 | 25593 ft | 444 kts | 20° |
| 2026-04-24 07:44 | -28.46136 | 153.40293 | 25114 ft | 441 kts | 19° |
| 2026-04-24 07:44 | -28.43166 | 153.41322 | 24626 ft | 439 kts | 20° |
| 2026-04-24 07:45 | -28.40288 | 153.42317 | 24170 ft | 437 kts | 20° |
| 2026-04-24 07:45 | -28.37383 | 153.43321 | 23665 ft | 435 kts | 19° |
| 2026-04-24 07:45 | -28.34497 | 153.44320 | 23114 ft | 432 kts | 20° |
| 2026-04-24 07:45 | -28.31632 | 153.45311 | 22578 ft | 429 kts | 20° |
| 2026-04-24 07:46 | -28.28785 | 153.46294 | 22052 ft | 426 kts | 20° |
| 2026-04-24 07:46 | -28.25957 | 153.47271 | 21531 ft | 423 kts | 20° |
| 2026-04-24 07:46 | -28.23148 | 153.48245 | 21019 ft | 421 kts | 20° |
| 2026-04-24 07:46 | -28.20358 | 153.49203 | 20527 ft | 418 kts | 19° |
| 2026-04-24 07:47 | -28.18435 | 153.49680 | 20196 ft | 419 kts | 11° |
| 2026-04-24 07:47 | -28.14588 | 153.49839 | 19553 ft | 420 kts | 357° |
| 2026-04-24 07:47 | -28.12631 | 153.49527 | 19231 ft | 420 kts | 352° |
| 2026-04-24 07:47 | -28.09766 | 153.48924 | 18790 ft | 417 kts | 352° |
| 2026-04-24 07:48 | -28.06927 | 153.48332 | 18280 ft | 413 kts | 352° |
| 2026-04-24 07:48 | -28.04112 | 153.47751 | 17753 ft | 409 kts | 352° |
| 2026-04-24 07:48 | -28.01326 | 153.47177 | 17232 ft | 405 kts | 352° |
| 2026-04-24 07:48 | -27.98564 | 153.46607 | 16721 ft | 400 kts | 352° |
| 2026-04-24 07:49 | -27.95836 | 153.46041 | 16216 ft | 396 kts | 352° |
| 2026-04-24 07:49 | -27.93178 | 153.45488 | 15725 ft | 391 kts | 352° |
| 2026-04-24 07:49 | -27.90481 | 153.44928 | 15231 ft | 387 kts | 352° |
| 2026-04-24 07:49 | -27.87885 | 153.44389 | 14758 ft | 383 kts | 352° |
| 2026-04-24 07:50 | -27.85277 | 153.43850 | 14284 ft | 379 kts | 352° |
| 2026-04-24 07:50 | -27.82694 | 153.43320 | 13774 ft | 375 kts | 352° |
| 2026-04-24 07:50 | -27.80138 | 153.42795 | 13253 ft | 372 kts | 352° |
| 2026-04-24 07:50 | -27.77600 | 153.42273 | 12730 ft | 369 kts | 352° |
| 2026-04-24 07:51 | -27.75082 | 153.41753 | 12224 ft | 366 kts | 352° |
| 2026-04-24 07:51 | -27.72587 | 153.41236 | 11730 ft | 363 kts | 352° |
| 2026-04-24 07:51 | -27.70118 | 153.40730 | 11339 ft | 358 kts | 352° |
| 2026-04-24 07:51 | -27.67684 | 153.40233 | 10978 ft | 352 kts | 352° |
| 2026-04-24 07:52 | -27.65292 | 153.39744 | 10616 ft | 347 kts | 352° |
| 2026-04-24 07:52 | -27.62911 | 153.39497 | 10257 ft | 340 kts | 3° |
| 2026-04-24 07:52 | -27.60565 | 153.39594 | 9869 ft | 335 kts | 5° |
| 2026-04-24 07:52 | -27.58250 | 153.39706 | 9486 ft | 332 kts | 5° |
| 2026-04-24 07:53 | -27.55975 | 153.39810 | 9305 ft | 321 kts | 5° |
| 2026-04-24 07:53 | -27.53795 | 153.39904 | 9316 ft | 307 kts | 5° |
| 2026-04-24 07:53 | -27.51758 | 153.39991 | 9320 ft | 298 kts | 5° |
| 2026-04-24 07:53 | -27.49727 | 153.40077 | 9323 ft | 290 kts | 5° |
| 2026-04-24 07:54 | -27.47665 | 153.40157 | 9256 ft | 301 kts | 5° |
| 2026-04-24 07:54 | -27.45568 | 153.40256 | 9093 ft | 302 kts | 6° |
| 2026-04-24 07:54 | -27.43468 | 153.40362 | 8979 ft | 302 kts | 6° |
| 2026-04-24 07:54 | -27.41363 | 153.40466 | 9005 ft | 303 kts | 5° |
| 2026-04-24 07:55 | -27.39246 | 153.40567 | 8773 ft | 306 kts | 5° |
| 2026-04-24 07:55 | -27.37119 | 153.40664 | 8394 ft | 306 kts | 5° |
| 2026-04-24 07:55 | -27.34993 | 153.40759 | 8023 ft | 305 kts | 5° |
| 2026-04-24 07:55 | -27.32870 | 153.40856 | 7653 ft | 305 kts | 6° |
| 2026-04-24 07:56 | -27.30749 | 153.40953 | 7292 ft | 305 kts | 5° |
| 2026-04-24 07:56 | -27.28628 | 153.41051 | 6927 ft | 305 kts | 5° |
| 2026-04-24 07:56 | -27.26511 | 153.41146 | 6554 ft | 304 kts | 5° |
| 2026-04-24 07:56 | -27.24399 | 153.41244 | 6172 ft | 304 kts | 5° |
| 2026-04-24 07:57 | -27.22290 | 153.41340 | 5792 ft | 304 kts | 4° |
| 2026-04-24 07:57 | -27.20187 | 153.41081 | 5415 ft | 304 kts | 346° |
| 2026-04-24 07:57 | -27.18279 | 153.40178 | 5039 ft | 293 kts | 328° |
| 2026-04-24 07:57 | -27.16690 | 153.38814 | 4653 ft | 283 kts | 319° |
| 2026-04-24 07:58 | -27.15207 | 153.37414 | 4273 ft | 274 kts | 318° |
| 2026-04-24 07:58 | -27.14026 | 153.35824 | 3996 ft | 257 kts | 294° |
| 2026-04-24 07:58 | -27.13486 | 153.33978 | 3988 ft | 247 kts | 272° |
| 2026-04-24 07:58 | -27.13538 | 153.32096 | 3993 ft | 237 kts | 251° |
| 2026-04-24 07:59 | -27.14102 | 153.30400 | 3994 ft | 229 kts | 237° |
| 2026-04-24 07:59 | -27.14801 | 153.28800 | 3996 ft | 226 kts | 238° |
| 2026-04-24 07:59 | -27.15467 | 153.27227 | 4001 ft | 230 kts | 237° |
| 2026-04-24 07:59 | -27.16361 | 153.25763 | 4001 ft | 226 kts | 218° |
| 2026-04-24 08:00 | -27.17617 | 153.24763 | 4004 ft | 220 kts | 202° |
| 2026-04-24 08:00 | -27.18975 | 153.23981 | 3958 ft | 220 kts | 202° |
| 2026-04-24 08:00 | -27.20328 | 153.23208 | 3743 ft | 217 kts | 201° |
| 2026-04-24 08:00 | -27.21664 | 153.22447 | 3482 ft | 214 kts | 201° |
| 2026-04-24 08:01 | -27.22985 | 153.21694 | 3201 ft | 212 kts | 201° |
| 2026-04-24 08:01 | -27.24299 | 153.20946 | 2919 ft | 211 kts | 200° |
| 2026-04-24 08:01 | -27.25579 | 153.20214 | 2648 ft | 197 kts | 201° |
| 2026-04-24 08:01 | -27.26724 | 153.19558 | 2381 ft | 173 kts | 200° |
| 2026-04-24 08:02 | -27.27720 | 153.18987 | 2182 ft | 149 kts | 199° |
| 2026-04-24 08:02 | -27.28653 | 153.18458 | 1985 ft | 149 kts | 199° |
| 2026-04-24 08:02 | -27.29571 | 153.17936 | 1781 ft | 147 kts | 199° |
| 2026-04-24 08:02 | -27.30478 | 153.17419 | 1587 ft | 145 kts | 199° |
| 2026-04-24 08:03 | -27.31376 | 153.16907 | 1390 ft | 145 kts | 200° |
| 2026-04-24 08:03 | -27.32280 | 153.16392 | 1202 ft | 146 kts | 200° |
| 2026-04-24 08:03 | -27.33191 | 153.15872 | 1010 ft | 147 kts | 201° |
| 2026-04-24 08:03 | -27.34105 | 153.15351 | 802 ft | 146 kts | 201° |
| 2026-04-24 08:04 | -27.35014 | 153.14832 | 603 ft | 146 kts | 203° |
| 2026-04-24 08:04 | -27.35922 | 153.14313 | 401 ft | 145 kts | 204° |
| 2026-04-24 08:04 | -27.36772 | 153.13827 | 203 ft | 130 kts | 206° |
| 2026-04-24 08:04 | -27.37536 | 153.13394 | 23 ft | 119 kts | 204° |
| 2026-04-24 08:05 | -27.38034 | 153.13119 | 20 ft | 54 kts | 207° |
| 2026-04-24 08:05 | -27.38242 | 153.12988 | 23 ft | 16 kts | 203° |
| 2026-04-24 08:05 | -27.38265 | 153.12978 | 21 ft | 0 kts | 203° |
| 2026-04-24 08:05 | -27.38275 | 153.12972 | 21 ft | 13 kts | 205° |
| 2026-04-24 08:06 | -27.38404 | 153.12888 | 21 ft | 12 kts | 221° |
| 2026-04-24 08:06 | -27.38429 | 153.12858 | 22 ft | 18 kts | 230° |
| 2026-04-24 08:06 | -27.38464 | 153.12718 | 21 ft | 0 kts | 286° |
| 2026-04-24 08:07 | -27.38442 | 153.12683 | 19 ft | 22 kts | 312° |
| 2026-04-24 08:08 | -27.38319 | 153.12544 | 18 ft | 26 kts | 313° |
| 2026-04-24 08:08 | -27.38304 | 153.12410 | 18 ft | 16 kts | 202° |
| 2026-04-24 08:08 | -27.38409 | 153.12405 | 18 ft | 16 kts | 205° |
| 2026-04-24 08:09 | -27.38439 | 153.12231 | 18 ft | 16 kts | 326° |
| 2026-04-24 08:09 | -27.38371 | 153.12184 | 18 ft | 8 kts | 307° |
| 2026-04-24 08:09 | -27.38364 | 153.12153 | 18 ft | 4 kts | 268° |
| 2026-04-24 08:09 | -27.38365 | 153.12143 | 18 ft | 0 kts | 263° |